Date,TemperatureHighF,TemperatureAvgF,TemperatureLowF,DewpointHighF,DewpointAvgF,DewpointLowF,HumidityHigh,HumidityAvg,HumidityLow,PressureMaxIn,PressureMinIn,WindSpeedMaxMPH,WindSpeedAvgMPH,GustSpeedMaxMPH,PrecipitationSumIn
2013-10-1,93,75,56,39,33,28,39,23,11,29.97,29.84,7,1,13,0.00
2013-10-2,91,76,59,46,41,36,50,30,15,29.95,29.80,7,1,11,0.00
2013-10-3,93,77,60,54,42,24,60,32,11,29.86,29.69,11,2,18,0.00
2013-10-4,87,73,59,47,40,24,52,31,18,29.97,29.80,9,2,15,0.00
2013-10-5,84,68,53,26,19,6,32,17,6,30.11,29.97,10,2,15,0.00
2013-10-6,89,74,51,22,17,12,26,13,6,30.12,29.99,13,5,22,0.00
2013-10-7,95,77,60,33,26,19,25,16,9,30.01,29.84,7,1,12,0.00
2013-10-8,90,75,60,35,30,26,34,20,12,29.89,29.75,14,2,16,0.00
2013-10-9,88,74,56,45,36,27,38,26,14,29.79,29.67,17,5,22,0.00
2013-10-10,72,64,57,50,44,40,64,50,35,29.95,29.72,11,4,20,0.00
2013-10-11,78,62,47,44,40,34,78,47,21,30.04,29.93,10,2,12,0.00
2013-10-12,87,68,48,39,35,31,60,34,14,30.00,29.86,9,1,14,0.00
2013-10-13,89,72,54,46,38,34,51,31,16,29.99,29.85,11,3,20,0.00
2013-10-14,84,69,54,45,38,33,64,35,19,30.02,29.90,8,1,11,0.00
2013-10-15,84,68,52,47,33,26,50,30,15,29.97,29.84,11,2,16,0.00
2013-10-16,80,64,49,30,19,3,41,21,5,30.08,29.98,6,2,10,0.00
2013-10-17,82,63,44,23,18,8,37,19,6,30.10,29.93,7,1,10,0.00
2013-10-18,83,64,45,25,22,19,39,22,11,30.05,29.95,7,2,11,0.00
2013-10-19,87,66,46,25,18,6,40,19,5,30.08,29.94,10,2,13,0.00
2013-10-20,85,66,49,21,16,10,30,16,6,30.00,29.86,12,2,15,0.00
2013-10-21,86,67,50,22,16,10,27,15,6,30.02,29.94,9,2,13,0.00
2013-10-22,92,72,49,25,18,6,30,15,4,30.07,29.91,14,4,18,0.00
2013-10-23,93,78,64,29,26,20,24,15,7,29.92,29.79,13,3,19,0.00
2013-10-24,92,74,56,32,26,23,31,18,9,29.98,29.83,10,2,18,0.00
2013-10-25,87,70,51,31,27,23,38,22,10,30.06,29.97,8,2,12,0.00
2013-10-26,89,70,49,31,26,19,44,22,8,30.13,29.99,10,1,18,0.00
2013-10-27,90,74,60,34,27,19,31,19,8,30.00,29.74,8,2,14,0.00
2013-10-28,82,70,59,36,31,23,39,25,12,29.91,29.80,13,3,20,0.00
2013-10-29,82,69,55,39,34,28,54,30,14,29.93,29.80,16,3,24,0.00
2013-10-30,71,57,45,41,34,27,68,44,23,30.09,29.89,12,2,17,0.00
2013-10-31,75,57,41,30,25,12,56,33,9,30.19,30.05,9,1,11,0.00